Bankersmith, Texas
Current Conditions -  °F | °C
As of 10:15 PM on Friday 31 Oct 2014 (Local Time) from KT82 Reporting Station
Clear Clear  
Wind Chill: 52°   Ceiling: Unl
Heat Index: 52°   Visibility: 10mi
Dew Point: 41°   Wind: 0mph
Humidity: 68%   Direction: NA
Pressure: 30.33"   Gusts: NA
Location:  30.3069°N, 98.8978°W
Report Text: KT82 010315Z AUTO 00000KT 10SM CLR 11/05 A3033 RMK AO2 T01090051
Loading
Personal Weather Stations






























Interactive Weather Map New forecast layout! Learn more

10-Day Weather Forecast

Advertisements
Track Severe Weather on mobile